Time;durP1;ratioP1;P1;durP2;ratioP2;P2;SDS_P1;SDS_P2;PMS_P1;PMS_P2;Temp;Humidity;BMP_temperature;BMP_pressure;BME280_temperature;BME280_humidity;BME280_pressure;Samples;Min_cycle;Max_cycle;Signal;HPM_P1;HPM_P2
2022/12/24 00:00:33;;;;;;;7.17;5.50;;;;;;;10.33;100.00;99039.69;5063038;28;20471;-64
2022/12/24 00:03:01;;;;;;;13.77;6.47;;;;;;;10.32;100.00;99025.47;5093992;28;21120;-64
2022/12/24 00:05:27;;;;;;;13.37;7.07;;;;;;;10.34;100.00;99036.81;5102322;28;20458;-65
2022/12/24 00:07:55;;;;;;;10.70;6.30;;;;;;;10.31;100.00;99047.00;5102800;28;20454;-64
2022/12/24 00:10:22;;;;;;;10.37;6.10;;;;;;;10.39;100.00;99038.19;5101978;28;20526;-64
2022/12/24 00:12:50;;;;;;;15.47;6.13;;;;;;;10.36;100.00;99037.53;5102976;28;20474;-64
2022/12/24 00:15:17;;;;;;;12.17;5.63;;;;;;;10.34;100.00;99044.03;5102192;28;20478;-67
2022/12/24 00:17:45;;;;;;;13.87;5.30;;;;;;;10.27;100.00;99041.16;5101606;28;20476;-70
2022/12/24 00:20:12;;;;;;;12.17;5.90;;;;;;;10.16;100.00;99039.66;5101925;28;21083;-70
2022/12/24 00:22:39;;;;;;;11.30;7.00;;;;;;;10.21;100.00;99049.84;5102706;28;20455;-69
2022/12/24 00:25:06;;;;;;;8.50;4.57;;;;;;;10.19;100.00;99046.53;5102193;28;20456;-70
2022/12/24 00:27:33;;;;;;;7.77;4.93;;;;;;;10.08;100.00;99038.84;5103143;28;20543;-69
2022/12/24 00:30:01;;;;;;;14.63;5.13;;;;;;;10.11;100.00;99050.00;5102257;28;20448;-69
2022/12/24 00:32:27;;;;;;;14.13;5.47;;;;;;;10.11;100.00;99059.88;5101822;28;21006;-69
2022/12/24 00:34:55;;;;;;;15.50;5.87;;;;;;;10.05;100.00;99064.03;5102235;28;20471;-69
2022/12/24 00:37:22;;;;;;;17.23;5.10;;;;;;;10.04;100.00;99064.22;5095102;28;20569;-69
2022/12/24 00:39:49;;;;;;;10.10;4.43;;;;;;;10.08;100.00;99079.72;5100765;28;20490;-69
2022/12/24 00:42:16;;;;;;;12.67;5.00;;;;;;;10.02;100.00;99074.22;5101749;28;20497;-69
2022/12/24 00:44:42;;;;;;;12.10;3.87;;;;;;;10.06;100.00;99067.53;5101972;28;20451;-69
2022/12/24 00:47:11;;;;;;;6.47;3.50;;;;;;;10.12;100.00;99065.03;5101958;28;20475;-69
2022/12/24 00:49:38;;;;;;;10.93;3.90;;;;;;;10.01;100.00;99076.03;5100989;28;20436;-70
2022/12/24 00:52:07;;;;;;;16.20;4.47;;;;;;;9.94;100.00;99085.72;5100823;28;20547;-70
2022/12/24 00:54:33;;;;;;;9.20;3.70;;;;;;;10.05;100.00;99090.75;5101736;28;20455;-70
2022/12/24 00:57:00;;;;;;;10.30;4.10;;;;;;;9.97;100.00;99091.56;5101554;28;20901;-70
2022/12/24 00:59:27;;;;;;;14.03;4.40;;;;;;;9.96;100.00;99099.72;5101870;28;20443;-70
2022/12/24 01:01:54;;;;;;;8.17;4.00;;;;;;;10.02;100.00;99108.94;5101646;28;20544;-70
2022/12/24 01:07:06;;;;;;;8.67;3.90;;;;;;;9.96;100.00;99107.75;5101036;28;20478;-69
2022/12/24 01:09:33;;;;;;;8.13;4.20;;;;;;;9.88;100.00;99118.44;5102210;28;20475;-69
2022/12/24 01:12:00;;;;;;;12.17;5.13;;;;;;;9.82;100.00;99109.22;5101094;28;20483;-69
2022/12/24 01:14:27;;;;;;;10.70;4.40;;;;;;;9.88;100.00;99115.75;5101344;28;20481;-69
2022/12/24 01:16:54;;;;;;;15.30;4.17;;;;;;;9.96;100.00;99115.75;5100931;28;20505;-69
2022/12/24 01:19:21;;;;;;;10.87;4.47;;;;;;;9.91;100.00;99132.28;5101506;28;20424;-69
2022/12/24 01:21:48;;;;;;;16.33;4.53;;;;;;;9.90;100.00;99141.28;5101050;28;20542;-69
2022/12/24 01:24:17;;;;;;;10.10;4.00;;;;;;;9.72;100.00;99136.06;5101385;28;20538;-70
2022/12/24 01:26:44;;;;;;;8.40;5.20;;;;;;;9.82;100.00;99138.59;5101125;28;20574;-69
2022/12/24 01:29:11;;;;;;;13.33;4.60;;;;;;;9.69;100.00;99130.22;5101174;28;20427;-69
2022/12/24 01:31:38;;;;;;;11.93;4.63;;;;;;;9.79;100.00;99149.59;5100807;28;20475;-70
2022/12/24 01:34:05;;;;;;;8.53;3.80;;;;;;;9.82;100.00;99156.44;5100269;28;20451;-70
2022/12/24 01:36:31;;;;;;;8.47;4.33;;;;;;;9.70;100.00;99151.38;5100839;28;20471;-70
2022/12/24 01:38:58;;;;;;;8.57;4.07;;;;;;;9.70;100.00;99154.06;5101298;28;20560;-70
2022/12/24 01:44:21;;;;;;;12.03;4.20;;;;;;;9.75;100.00;99159.75;5099229;28;20462;-69
2022/12/24 01:46:48;;;;;;;13.40;5.03;;;;;;;9.68;100.00;99166.72;5100345;28;20521;-69
2022/12/24 01:49:16;;;;;;;15.30;4.70;;;;;;;9.69;100.00;99168.41;5100307;28;20431;-70
2022/12/24 01:51:45;;;;;;;15.27;4.63;;;;;;;9.68;100.00;99179.25;5100752;28;20479;-69
2022/12/24 01:54:14;;;;;;;9.90;3.90;;;;;;;9.71;100.00;99182.44;5100303;28;20458;-69
2022/12/24 01:56:45;;;;;;;13.67;4.23;;;;;;;9.78;100.00;99180.78;5100687;28;20479;-69
2022/12/24 01:59:14;;;;;;;11.17;4.23;;;;;;;9.75;100.00;99181.09;5101446;28;20431;-69
2022/12/24 02:01:41;;;;;;;11.30;5.20;;;;;;;9.72;100.00;99175.25;5100775;28;20483;-69
2022/12/24 02:04:12;;;;;;;22.00;4.73;;;;;;;9.68;100.00;99190.75;5100793;28;20487;-69
2022/12/24 02:06:39;;;;;;;22.47;5.40;;;;;;;9.76;100.00;99189.97;5099694;28;21020;-69
2022/12/24 02:09:06;;;;;;;17.67;5.30;;;;;;;9.76;100.00;99209.47;5100854;28;20849;-69
2022/12/24 02:11:33;;;;;;;16.67;5.40;;;;;;;9.70;100.00;99190.59;5099901;28;20467;-69
2022/12/24 02:14:01;;;;;;;17.87;5.20;;;;;;;9.71;100.00;99202.97;5100671;28;20473;-69
2022/12/24 02:16:36;;;;;;;17.53;6.00;;;;;;;9.76;100.00;99222.00;5092228;28;20486;-69
2022/12/24 02:19:15;;;;;;;20.40;5.80;;;;;;;9.69;100.00;99212.97;5100059;28;20478;-69
2022/12/24 02:21:50;;;;;;;18.23;5.57;;;;;;;9.75;100.00;99217.63;5067714;28;20483;-69
2022/12/24 02:24:54;;;;;;;17.83;5.53;;;;;;;9.79;100.00;99227.00;5100027;28;21038;-70
2022/12/24 02:27:33;;;;;;;23.63;6.80;;;;;;;9.77;100.00;99218.31;5061235;28;21011;-70
2022/12/24 02:30:17;;;;;;;26.73;7.60;;;;;;;9.76;100.00;99232.66;5099922;28;20443;-70
2022/12/24 02:32:59;;;;;;;20.53;7.20;;;;;;;9.78;100.00;99241.34;5100279;28;20484;-70
2022/12/24 02:35:33;;;;;;;18.00;7.63;;;;;;;9.70;100.00;99247.47;5085727;28;20983;-70
2022/12/24 02:38:05;;;;;;;16.23;6.00;;;;;;;9.66;100.00;99245.31;5099938;28;20505;-70
2022/12/24 02:40:36;;;;;;;23.70;6.27;;;;;;;9.64;100.00;99257.97;5101961;28;20460;-70
2022/12/24 02:43:05;;;;;;;16.47;5.90;;;;;;;9.55;100.00;99260.59;5103971;28;20471;-70
2022/12/24 02:45:35;;;;;;;19.20;8.00;;;;;;;9.63;100.00;99246.44;5103348;28;20463;-69
2022/12/24 02:48:01;;;;;;;24.60;7.30;;;;;;;9.69;100.00;99256.50;5104775;28;20465;-69
2022/12/24 02:50:28;;;;;;;20.57;6.77;;;;;;;9.73;100.00;99265.84;5103105;28;20496;-69
2022/12/24 02:52:55;;;;;;;16.87;6.50;;;;;;;9.62;100.00;99255.47;5103979;28;20435;-69
2022/12/24 02:55:25;;;;;;;17.70;6.10;;;;;;;9.70;100.00;99252.81;5103227;28;20490;-70
2022/12/24 02:58:02;;;;;;;20.87;8.43;;;;;;;9.75;100.00;99255.00;5104455;28;20507;-70
2022/12/24 03:00:35;;;;;;;18.10;7.20;;;;;;;9.69;100.00;99256.50;5103535;28;20451;-70
2022/12/24 03:03:13;;;;;;;21.63;7.47;;;;;;;9.66;100.00;99272.81;5097106;28;20443;-70
2022/12/24 03:05:45;;;;;;;22.37;7.23;;;;;;;9.60;100.00;99271.63;5103276;28;20979;-70
2022/12/24 03:08:17;;;;;;;16.73;7.30;;;;;;;9.74;100.00;99282.72;5104254;28;20508;-70
2022/12/24 03:10:49;;;;;;;19.70;7.90;;;;;;;9.77;100.00;99295.72;5102745;28;20515;-70
2022/12/24 03:13:17;;;;;;;27.93;8.20;;;;;;;9.63;100.00;99291.81;5103730;28;20475;-70
2022/12/24 03:15:47;;;;;;;26.03;7.60;;;;;;;9.70;100.00;99313.38;5102933;28;20467;-69
2022/12/24 03:18:17;;;;;;;23.60;8.20;;;;;;;9.70;100.00;99308.84;5103774;28;21058;-69
2022/12/24 03:20:46;;;;;;;21.40;6.57;;;;;;;9.63;100.00;99309.66;5102366;28;20472;-69
2022/12/24 03:23:13;;;;;;;15.13;6.67;;;;;;;9.61;100.00;99328.50;5103943;28;20451;-69
2022/12/24 03:25:42;;;;;;;22.43;7.73;;;;;;;9.69;100.00;99327.72;5102889;28;20466;-68
2022/12/24 03:28:10;;;;;;;23.60;7.87;;;;;;;9.67;100.00;99337.69;5103851;28;20463;-69
2022/12/24 03:30:39;;;;;;;32.40;8.07;;;;;;;9.75;100.00;99343.91;5102847;28;20498;-68
2022/12/24 03:33:07;;;;;;;20.57;7.00;;;;;;;9.62;100.00;99332.84;5103481;28;20475;-69
2022/12/24 03:35:34;;;;;;;13.60;6.13;;;;;;;9.73;100.00;99337.09;5102391;28;20471;-69
2022/12/24 03:38:01;;;;;;;19.10;8.00;;;;;;;9.59;100.00;99336.66;5103115;28;20518;-69
2022/12/24 03:40:27;;;;;;;30.23;8.17;;;;;;;9.67;100.00;99343.91;5103514;28;20930;-69
2022/12/24 03:42:54;;;;;;;21.20;6.83;;;;;;;9.68;100.00;99352.72;5103878;28;20444;-69
2022/12/24 03:45:21;;;;;;;21.83;7.07;;;;;;;9.65;100.00;99353.88;5101954;28;20510;-69
2022/12/24 03:47:48;;;;;;;24.33;7.20;;;;;;;9.61;100.00;99355.19;5103777;28;20463;-69
2022/12/24 03:50:16;;;;;;;26.73;6.50;;;;;;;9.73;100.00;99353.09;5101499;28;20447;-68
2022/12/24 03:52:45;;;;;;;20.83;6.47;;;;;;;9.71;100.00;99360.44;5103049;28;20479;-68
2022/12/24 03:55:12;;;;;;;23.47;6.53;;;;;;;9.67;100.00;99351.03;5102311;28;21100;-68
2022/12/24 03:57:39;;;;;;;20.20;6.90;;;;;;;9.62;100.00;99362.22;5103558;28;20605;-68
2022/12/24 04:00:07;;;;;;;21.33;6.07;;;;;;;9.70;100.00;99364.09;5103415;28;20483;-68
2022/12/24 04:02:33;;;;;;;28.37;7.53;;;;;;;9.81;100.00;99363.84;5102953;28;20471;-68
2022/12/24 04:05:00;;;;;;;24.87;7.90;;;;;;;9.76;100.00;99366.97;5102669;28;20497;-68
2022/12/24 04:07:28;;;;;;;30.53;7.70;;;;;;;9.69;100.00;99354.41;5101687;28;20475;-68
2022/12/24 04:09:55;;;;;;;20.23;6.27;;;;;;;9.67;100.00;99359.06;5102801;28;20482;-68
2022/12/24 04:12:22;;;;;;;23.70;7.27;;;;;;;9.65;100.00;99385.06;5102860;28;20486;-68
2022/12/24 04:14:49;;;;;;;20.47;7.33;;;;;;;9.69;100.00;99387.28;5102389;28;20520;-68
2022/12/24 04:17:16;;;;;;;24.37;7.27;;;;;;;9.71;100.00;99385.28;5101902;28;20533;-68
2022/12/24 04:19:42;;;;;;;29.17;8.27;;;;;;;9.62;100.00;99383.56;5102551;28;21079;-69
2022/12/24 04:22:09;;;;;;;27.70;6.80;;;;;;;9.72;100.00;99394.13;5101642;28;20491;-69
2022/12/24 04:24:37;;;;;;;26.67;7.30;;;;;;;9.66;100.00;99403.59;5101742;28;20481;-69
2022/12/24 04:27:04;;;;;;;34.33;7.63;;;;;;;9.72;100.00;99392.31;5102479;28;20507;-69
2022/12/24 04:29:30;;;;;;;22.00;7.50;;;;;;;9.73;100.00;99401.16;5102838;28;20492;-69
2022/12/24 04:31:57;;;;;;;31.00;6.90;;;;;;;9.63;100.00;99413.75;5101987;28;20480;-69
2022/12/24 04:34:24;;;;;;;27.13;8.17;;;;;;;9.68;100.00;99414.94;5101715;28;20547;-68
2022/12/24 04:36:51;;;;;;;29.20;7.70;;;;;;;9.67;100.00;99413.28;5100919;28;20475;-69
2022/12/24 04:39:17;;;;;;;29.13;7.97;;;;;;;9.56;100.00;99401.00;5102875;28;20483;-69
2022/12/24 04:41:45;;;;;;;27.93;7.50;;;;;;;9.60;100.00;99413.06;5101420;28;20514;-68
2022/12/24 04:44:12;;;;;;;36.03;7.57;;;;;;;9.51;100.00;99413.13;5102114;28;20487;-69
2022/12/24 04:46:39;;;;;;;21.37;6.83;;;;;;;9.55;100.00;99417.19;5101554;28;20537;-69
2022/12/24 04:49:06;;;;;;;20.73;6.57;;;;;;;9.52;100.00;99436.19;5102019;28;20432;-69
2022/12/24 04:51:33;;;;;;;30.37;7.73;;;;;;;9.36;100.00;99434.22;5100607;28;20483;-69
2022/12/24 04:54:00;;;;;;;23.73;6.60;;;;;;;9.45;100.00;99435.94;5101815;28;20448;-68
2022/12/24 04:56:28;;;;;;;23.40;8.33;;;;;;;9.54;100.00;99434.19;5101288;28;20515;-68
2022/12/24 04:58:56;;;;;;;29.37;7.47;;;;;;;9.54;100.00;99442.19;5102171;28;20471;-69
2022/12/24 05:01:25;;;;;;;31.20;7.13;;;;;;;9.41;100.00;99435.41;5100963;28;20483;-69
2022/12/24 05:03:52;;;;;;;15.10;6.43;;;;;;;9.36;100.00;99432.38;5100717;28;20972;-69
2022/12/24 05:06:20;;;;;;;17.30;6.33;;;;;;;9.48;100.00;99438.31;5100631;28;20464;-68
2022/12/24 05:08:47;;;;;;;24.60;7.30;;;;;;;9.48;100.00;99450.78;5101988;28;20456;-68
2022/12/24 05:11:15;;;;;;;30.90;7.23;;;;;;;9.38;100.00;99438.38;5101231;28;20475;-68
2022/12/24 05:13:43;;;;;;;20.13;6.33;;;;;;;9.47;100.00;99447.31;5101503;28;20447;-69
2022/12/24 05:16:11;;;;;;;28.93;7.10;;;;;;;9.45;100.00;99443.13;5100660;28;20991;-69
2022/12/24 05:18:38;;;;;;;17.17;6.80;;;;;;;9.46;100.00;99450.13;5101541;28;20906;-69
2022/12/24 05:21:08;;;;;;;29.73;6.63;;;;;;;9.40;100.00;99464.91;5100060;28;20475;-69
2022/12/24 05:26:28;;;;;;;20.10;5.90;;;;;;;9.39;100.00;99460.56;5101230;28;20497;-69
2022/12/24 05:28:55;;;;;;;34.23;7.17;;;;;;;9.37;100.00;99467.88;5101640;28;20481;-68
2022/12/24 05:31:26;;;;;;;20.27;6.60;;;;;;;9.31;100.00;99469.34;5100720;28;20486;-68
2022/12/24 05:33:53;;;;;;;25.97;7.77;;;;;;;9.29;100.00;99471.31;5101283;28;20454;-68
2022/12/24 05:36:20;;;;;;;24.00;8.30;;;;;;;9.23;100.00;99474.56;5099639;28;20481;-68
2022/12/24 05:38:47;;;;;;;21.53;6.87;;;;;;;9.53;100.00;99473.38;5101199;28;20523;-68
2022/12/24 05:41:14;;;;;;;33.03;8.07;;;;;;;9.29;100.00;99473.13;5101290;28;20527;-68
2022/12/24 05:43:40;;;;;;;16.20;6.23;;;;;;;9.34;100.00;99486.84;5100775;28;20459;-68
2022/12/24 05:46:09;;;;;;;17.00;6.20;;;;;;;9.34;100.00;99485.03;5100122;28;20493;-68
2022/12/24 05:48:38;;;;;;;23.57;6.40;;;;;;;9.34;100.00;99493.03;5101018;28;20435;-68
2022/12/24 05:51:05;;;;;;;35.50;7.50;;;;;;;9.28;100.00;99495.47;5099400;28;20474;-68
2022/12/24 05:53:32;;;;;;;29.27;7.40;;;;;;;9.21;100.00;99492.56;5100557;28;20876;-68
2022/12/24 05:56:03;;;;;;;28.37;7.20;;;;;;;9.22;100.00;99495.09;5098197;28;20543;-68
2022/12/24 05:58:30;;;;;;;22.63;7.93;;;;;;;9.25;100.00;99501.94;5101574;28;20494;-68
2022/12/24 06:00:57;;;;;;;32.00;8.43;;;;;;;9.22;100.00;99504.91;5099748;28;21227;-68
2022/12/24 06:03:24;;;;;;;21.40;7.47;;;;;;;9.16;100.00;99497.50;5094222;28;20452;-68
2022/12/24 06:05:59;;;;;;;18.80;6.63;;;;;;;9.37;100.00;99500.75;5076717;28;20544;-64
2022/12/24 06:08:26;;;;;;;28.23;8.63;;;;;;;9.22;100.00;99499.59;5086746;28;20471;-64
2022/12/24 06:10:56;;;;;;;31.63;9.60;;;;;;;9.33;100.00;99506.53;5096156;28;20476;-64
2022/12/24 06:13:23;;;;;;;34.57;8.77;;;;;;;9.27;100.00;99512.44;5095769;28;20448;-64
2022/12/24 06:15:49;;;;;;;31.43;7.20;;;;;;;9.27;100.00;99515.97;5077296;28;20524;-64
2022/12/24 06:18:16;;;;;;;36.10;7.73;;;;;;;9.32;100.00;99526.19;5093099;28;20762;-64
2022/12/24 06:20:43;;;;;;;22.30;7.17;;;;;;;9.34;100.00;99525.06;5086140;28;20498;-64
2022/12/24 06:23:11;;;;;;;22.80;7.70;;;;;;;9.27;100.00;99521.31;5079964;28;20452;-64
2022/12/24 06:25:38;;;;;;;34.20;7.80;;;;;;;9.21;100.00;99521.91;5079724;28;20487;-64
2022/12/24 06:28:05;;;;;;;24.43;7.77;;;;;;;9.29;100.00;99515.81;5077940;28;20486;-64
2022/12/24 06:30:31;;;;;;;28.33;8.30;;;;;;;9.34;100.00;99518.84;5089027;28;20475;-64
2022/12/24 06:35:38;;;;;;;32.90;10.10;;;;;;;9.32;100.00;99531.50;5073305;28;20478;-64
2022/12/24 06:38:05;;;;;;;23.20;9.10;;;;;;;9.38;100.00;99528.25;5077740;28;20467;-64
2022/12/24 06:40:34;;;;;;;23.83;8.60;;;;;;;9.34;100.00;99534.88;5058422;28;20484;-64
2022/12/24 06:43:01;;;;;;;24.57;7.90;;;;;;;9.38;100.00;99534.44;5058961;28;20469;-64
2022/12/24 06:45:27;;;;;;;23.80;7.83;;;;;;;9.46;100.00;99541.69;5060045;28;20686;-65
2022/12/24 06:47:54;;;;;;;30.37;10.97;;;;;;;9.30;100.00;99545.00;5060001;28;20627;-65
2022/12/24 06:50:21;;;;;;;24.03;8.77;;;;;;;9.28;100.00;99549.66;5066234;28;20954;-65
2022/12/24 06:52:47;;;;;;;29.80;9.30;;;;;;;9.27;100.00;99540.00;5064595;28;20467;-65
2022/12/24 06:55:14;;;;;;;31.30;9.40;;;;;;;9.26;100.00;99548.97;5055890;28;20524;-64
2022/12/24 06:57:43;;;;;;;31.73;10.27;;;;;;;9.20;100.00;99547.75;5060427;28;20521;-64
2022/12/24 07:00:11;;;;;;;30.47;11.20;;;;;;;9.29;100.00;99538.00;5063769;28;20488;-64
2022/12/24 07:02:40;;;;;;;32.23;10.40;;;;;;;9.21;100.00;99556.56;5063321;28;20894;-64
2022/12/24 07:05:08;;;;;;;34.37;10.20;;;;;;;9.31;100.00;99560.03;5058967;28;20492;-64
2022/12/24 07:07:37;;;;;;;27.17;8.47;;;;;;;9.30;100.00;99565.50;5058288;28;20515;-64
2022/12/24 07:10:04;;;;;;;36.20;9.83;;;;;;;9.39;100.00;99559.25;5059814;28;20456;-64
2022/12/24 07:12:31;;;;;;;36.40;10.27;;;;;;;9.30;100.00;99563.66;5066670;28;20554;-64
2022/12/24 07:14:59;;;;;;;25.60;10.67;;;;;;;9.39;100.00;99568.13;5065993;28;20478;-64
2022/12/24 07:17:26;;;;;;;34.60;9.07;;;;;;;9.34;100.00;99573.06;5060748;28;20481;-64
2022/12/24 07:19:53;;;;;;;51.70;13.63;;;;;;;9.43;100.00;99571.34;5058272;28;20500;-64
2022/12/24 07:22:20;;;;;;;34.47;8.77;;;;;;;9.40;100.00;99572.47;5065593;28;20468;-64
2022/12/24 07:24:46;;;;;;;38.00;11.93;;;;;;;9.38;100.00;99576.28;5069519;28;20452;-64
2022/12/24 07:27:13;;;;;;;42.03;9.90;;;;;;;9.34;100.00;99570.41;5066972;28;20481;-64
2022/12/24 07:29:40;;;;;;;31.67;9.87;;;;;;;9.45;100.00;99579.19;5070579;28;20999;-64
2022/12/24 07:32:09;;;;;;;21.73;9.90;;;;;;;9.33;100.00;99582.06;5060375;28;20571;-69
2022/12/24 07:34:35;;;;;;;27.47;10.50;;;;;;;9.44;100.00;99591.66;5062957;28;20457;-69
2022/12/24 07:37:02;;;;;;;21.77;9.40;;;;;;;9.42;100.00;99588.31;5061579;28;20911;-69
2022/12/24 07:39:29;;;;;;;28.07;9.90;;;;;;;9.39;100.00;99589.47;5075618;28;20487;-69
2022/12/24 07:41:56;;;;;;;25.40;10.87;;;;;;;9.23;100.00;99597.25;5081848;28;20510;-69
2022/12/24 07:44:22;;;;;;;34.00;11.33;;;;;;;9.27;100.00;99589.81;5082788;28;20468;-69
2022/12/24 07:46:50;;;;;;;29.90;12.47;;;;;;;9.16;100.00;99594.34;5082513;28;20468;-69
2022/12/24 07:49:18;;;;;;;43.20;14.47;;;;;;;9.24;100.00;99599.78;5082192;28;20463;-68
2022/12/24 07:51:47;;;;;;;30.87;13.20;;;;;;;9.17;100.00;99595.22;5079442;28;20502;-69
2022/12/24 07:54:14;;;;;;;29.03;13.97;;;;;;;9.30;100.00;99605.53;5082999;28;20458;-69
2022/12/24 07:56:40;;;;;;;30.80;13.60;;;;;;;9.27;100.00;99608.47;5081763;28;20480;-69
2022/12/24 07:59:07;;;;;;;39.37;15.47;;;;;;;9.32;100.00;99614.22;5083159;28;20471;-69
2022/12/24 08:01:34;;;;;;;34.63;14.73;;;;;;;9.45;100.00;99612.03;5081987;28;20472;-69
2022/12/24 08:04:01;;;;;;;41.10;15.80;;;;;;;9.34;100.00;99620.22;5068743;28;20855;-68
2022/12/24 08:06:29;;;;;;;43.53;17.30;;;;;;;9.29;100.00;99619.84;5081407;28;20474;-69
2022/12/24 08:08:55;;;;;;;29.93;14.73;;;;;;;9.47;100.00;99623.41;5082649;28;20448;-68
2022/12/24 08:11:22;;;;;;;35.70;16.20;;;;;;;9.38;100.00;99624.31;5082285;28;20504;-69
2022/12/24 08:13:49;;;;;;;32.60;15.40;;;;;;;9.38;100.00;99622.47;5082237;28;20941;-68
2022/12/24 08:16:16;;;;;;;34.47;15.40;;;;;;;9.36;100.00;99620.94;5081481;28;20498;-69
2022/12/24 08:18:43;;;;;;;34.93;16.00;;;;;;;9.32;100.00;99624.88;5082419;28;20864;-69
2022/12/24 08:21:11;;;;;;;41.17;15.17;;;;;;;9.40;100.00;99631.16;5061535;28;20493;-69
2022/12/24 08:23:40;;;;;;;35.07;15.80;;;;;;;9.41;100.00;99637.34;5080276;28;20445;-69
2022/12/24 08:26:08;;;;;;;31.57;12.80;;;;;;;9.37;100.00;99639.47;5081534;28;20472;-69
2022/12/24 08:28:35;;;;;;;20.63;10.80;;;;;;;9.50;100.00;99638.28;5082124;28;20504;-69
2022/12/24 08:31:02;;;;;;;34.03;11.23;;;;;;;9.42;100.00;99641.69;5093125;28;20474;-69
2022/12/24 08:33:28;;;;;;;22.80;10.40;;;;;;;9.40;100.00;99641.81;5083515;28;20451;-66
2022/12/24 08:35:56;;;;;;;18.90;9.87;;;;;;;9.53;100.00;99653.97;5081341;28;20990;-62
2022/12/24 08:38:23;;;;;;;34.27;11.70;;;;;;;9.48;100.00;99658.91;5080888;28;20476;-64
2022/12/24 08:40:53;;;;;;;21.90;11.47;;;;;;;9.34;100.00;99661.09;5078841;28;20589;-62
2022/12/24 08:43:20;;;;;;;22.40;11.83;;;;;;;9.43;100.00;99664.72;5095679;28;20517;-62
2022/12/24 08:45:48;;;;;;;23.70;12.63;;;;;;;9.40;100.00;99660.50;5082771;28;21058;-62
2022/12/24 08:48:15;;;;;;;28.33;13.37;;;;;;;9.48;100.00;99669.59;5087311;28;20484;-62
2022/12/24 08:50:42;;;;;;;25.50;13.07;;;;;;;9.50;100.00;99681.81;5080283;28;21067;-62
2022/12/24 08:53:09;;;;;;;24.57;12.90;;;;;;;9.57;100.00;99674.88;5080539;28;20463;-62
2022/12/24 08:55:36;;;;;;;24.10;13.23;;;;;;;9.51;100.00;99683.50;5081013;28;20538;-62
2022/12/24 08:58:04;;;;;;;29.00;14.40;;;;;;;9.50;100.00;99689.00;5082174;28;20444;-62
2022/12/24 09:00:30;;;;;;;35.00;14.10;;;;;;;9.61;100.00;99700.28;5084983;28;20468;-62
2022/12/24 09:02:58;;;;;;;23.30;12.93;;;;;;;9.52;100.00;99693.16;5082050;28;20545;-62
2022/12/24 09:05:26;;;;;;;19.60;12.47;;;;;;;9.55;100.00;99692.06;5079817;28;20472;-62
2022/12/24 09:07:52;;;;;;;22.90;13.13;;;;;;;9.47;100.00;99695.44;5088851;28;20541;-62
2022/12/24 09:10:20;;;;;;;20.27;10.03;;;;;;;9.40;100.00;99697.03;5090933;28;20437;-62
2022/12/24 09:12:47;;;;;;;14.93;7.73;;;;;;;9.51;100.00;99701.31;5094113;28;20505;-62
2022/12/24 09:15:15;;;;;;;17.30;8.63;;;;;;;9.54;100.00;99704.53;5098781;28;20802;-62
2022/12/24 09:17:42;;;;;;;21.53;8.80;;;;;;;9.52;100.00;99708.34;5095703;28;20647;-62
2022/12/24 09:20:10;;;;;;;18.07;8.97;;;;;;;9.46;100.00;99706.25;5085737;28;20514;-62
2022/12/24 09:22:39;;;;;;;18.57;9.33;;;;;;;9.66;100.00;99713.19;5091015;28;20516;-62
2022/12/24 09:25:07;;;;;;;24.20;10.50;;;;;;;9.58;100.00;99715.75;5089893;28;20455;-62
2022/12/24 09:27:34;;;;;;;30.83;9.57;;;;;;;9.59;100.00;99720.94;5080671;28;20483;-62
2022/12/24 09:30:01;;;;;;;19.90;10.87;;;;;;;9.65;100.00;99722.19;5080004;28;20505;-62
2022/12/24 09:32:29;;;;;;;27.07;10.30;;;;;;;9.69;100.00;99736.94;5080059;28;21273;-62
2022/12/24 09:34:56;;;;;;;22.17;12.00;;;;;;;9.70;100.00;99738.59;5079834;28;20448;-62
2022/12/24 09:37:23;;;;;;;30.33;11.30;;;;;;;9.77;100.00;99757.53;5078016;28;20502;-62
2022/12/24 09:39:50;;;;;;;29.33;11.53;;;;;;;9.67;100.00;99746.06;5065430;28;20486;-62
2022/12/24 09:42:25;;;;;;;20.60;12.10;;;;;;;9.73;100.00;99759.66;5059500;28;20473;-62
2022/12/24 09:44:58;;;;;;;30.93;11.73;;;;;;;9.89;100.00;99760.84;5059761;28;20452;-65
2022/12/24 09:47:27;;;;;;;23.27;11.93;;;;;;;9.88;100.00;99757.34;5059952;28;20477;-65
2022/12/24 09:49:57;;;;;;;39.57;13.37;;;;;;;9.87;100.00;99776.19;5059066;28;20503;-65
2022/12/24 09:52:30;;;;;;;23.90;12.60;;;;;;;9.83;100.00;99772.16;5058209;28;20501;-65
2022/12/24 09:55:02;;;;;;;35.10;12.40;;;;;;;9.88;100.00;99760.03;5059287;28;20453;-65
2022/12/24 09:57:34;;;;;;;28.27;13.60;;;;;;;9.99;100.00;99764.31;5058816;28;20504;-65
2022/12/24 10:00:02;;;;;;;30.00;12.43;;;;;;;9.97;100.00;99753.78;5058834;28;20469;-64
2022/12/24 10:02:28;;;;;;;31.10;12.57;;;;;;;10.24;100.00;99770.78;5057172;28;20468;-65
2022/12/24 10:04:57;;;;;;;28.10;12.37;;;;;;;10.19;100.00;99775.75;5058366;28;20480;-65
2022/12/24 10:07:36;;;;;;;23.63;10.07;;;;;;;10.22;100.00;99777.25;5056653;28;20477;-65
2022/12/24 10:10:10;;;;;;;34.40;11.83;;;;;;;10.11;100.00;99784.50;5058500;28;20507;-65
2022/12/24 10:12:42;;;;;;;26.33;11.30;;;;;;;10.17;100.00;99791.91;5058516;28;20461;-65
2022/12/24 10:15:16;;;;;;;35.10;11.53;;;;;;;10.28;100.00;99777.50;5058156;28;20430;-64
2022/12/24 10:17:56;;;;;;;21.53;10.73;;;;;;;10.16;100.00;99789.41;5058567;28;20449;-62
2022/12/24 10:20:45;;;;;;;30.80;12.40;;;;;;;10.25;100.00;99782.31;5055778;28;20480;-63
2022/12/24 10:23:19;;;;;;;24.10;10.07;;;;;;;10.18;100.00;99782.06;5057110;28;20508;-63
2022/12/24 10:25:50;;;;;;;29.73;12.50;;;;;;;10.20;100.00;99785.44;5053558;28;20479;-63
2022/12/24 10:28:19;;;;;;;30.43;11.37;;;;;;;10.33;100.00;99795.81;5062647;28;20487;-62
2022/12/24 10:30:49;;;;;;;28.00;9.60;;;;;;;10.32;100.00;99792.28;5049840;28;20465;-63
2022/12/24 10:33:19;;;;;;;23.10;10.33;;;;;;;10.26;100.00;99800.00;5062871;28;20456;-62
2022/12/24 10:35:52;;;;;;;22.10;10.90;;;;;;;10.21;100.00;99803.16;5065067;28;20469;-62
2022/12/24 10:38:19;;;;;;;25.03;9.37;;;;;;;10.42;100.00;99799.41;5065950;28;20522;-62
2022/12/24 10:40:47;;;;;;;22.03;8.90;;;;;;;10.49;100.00;99792.47;5084104;28;20499;-62
2022/12/24 10:43:15;;;;;;;20.80;9.53;;;;;;;10.51;100.00;99802.00;5075765;28;20467;-62
2022/12/24 10:45:45;;;;;;;19.47;8.77;;;;;;;10.64;100.00;99804.31;5078822;28;20476;-62
2022/12/24 10:48:17;;;;;;;25.80;8.90;;;;;;;10.46;100.00;99806.13;5075059;28;21012;-63
2022/12/24 10:50:56;;;;;;;21.00;7.47;;;;;;;10.57;100.00;99813.06;5079272;28;20482;-64
2022/12/24 10:53:25;;;;;;;26.17;8.50;;;;;;;10.65;100.00;99810.50;5076025;28;20482;-63
2022/12/24 10:56:01;;;;;;;17.27;7.80;;;;;;;10.53;100.00;99813.38;5083664;28;20479;-63
2022/12/24 10:58:28;;;;;;;20.80;8.57;;;;;;;10.60;100.00;99820.78;5086562;28;20950;-63
2022/12/24 11:00:55;;;;;;;22.73;7.47;;;;;;;10.49;100.00;99821.84;5092782;28;20479;-64
2022/12/24 11:03:25;;;;;;;23.30;7.80;;;;;;;10.58;100.00;99825.47;5071745;28;20447;-64
2022/12/24 11:06:11;;;;;;;23.13;7.80;;;;;;;10.41;100.00;99832.44;5078951;28;20534;-64
2022/12/24 11:08:39;;;;;;;25.83;7.83;;;;;;;10.27;100.00;99834.59;5088359;28;20452;-62
2022/12/24 11:11:08;;;;;;;21.33;8.40;;;;;;;10.47;100.00;99834.53;5089425;28;20506;-65
2022/12/24 11:13:36;;;;;;;17.37;7.93;;;;;;;10.43;100.00;99836.63;5070861;28;20448;-65
2022/12/24 11:16:06;;;;;;;17.70;6.87;;;;;;;10.35;100.00;99829.38;5089549;28;20472;-62
2022/12/24 11:18:34;;;;;;;29.63;7.93;;;;;;;10.33;100.00;99843.91;5090146;28;20475;-63
2022/12/24 11:21:02;;;;;;;19.03;6.93;;;;;;;10.44;100.00;99829.50;5073820;28;20480;-63
2022/12/24 11:23:31;;;;;;;20.50;6.90;;;;;;;10.53;100.00;99820.56;5098371;28;20511;-63
2022/12/24 11:25:58;;;;;;;22.13;8.30;;;;;;;10.75;100.00;99827.31;5094561;28;20498;-63
2022/12/24 11:28:27;;;;;;;15.33;6.90;;;;;;;10.98;100.00;99829.53;5091322;28;20455;-63
2022/12/24 11:30:59;;;;;;;25.20;8.60;;;;;;;11.64;100.00;99823.66;5103089;28;20463;-63
2022/12/24 11:33:26;;;;;;;23.27;7.23;;;;;;;11.80;99.00;99819.38;5103452;28;20479;-63
2022/12/24 11:35:57;;;;;;;12.30;6.73;;;;;;;11.92;97.72;99826.19;5101369;28;20886;-63
2022/12/24 11:38:25;;;;;;;26.80;7.60;;;;;;;12.26;95.64;99822.66;5102966;28;20483;-63